Palo Cedro, California
Current Conditions -  °F | °C
As of 12:53 AM on Friday 24 Oct 2014 (Local Time) from KRDD Reporting Station
Overcast Overcast  
Wind Chill: 56°   Ceiling: 5500
Heat Index: 56°   Visibility: 10mi
Dew Point: 55°   Wind: 7mph
Humidity: 97%   Direction: 300°WNW
Pressure: 30.01"   Gusts: NA
Location:  40.56°N, 122.24°W
Report Text: KRDD 240753Z AUTO 30006KT 10SM BKN055 OVC085 13/13 A3001 RMK AO2 SLP158 T01330128 401500133
Loading
Personal Weather Stations






























Interactive Weather Map
Tropical Storm Tracking
New forecast layout! Learn more

10-Day Weather Forecast

Advertisements
Track Severe Weather on mobile